sensor_id;sensor_type;location;lat;lon;timestamp;P1;durP1;ratioP1;P2;durP2;ratioP2
479;SDS011;226;48.606;9.096;2023-06-26T00:01:54;15.33;;;6.40;;
479;SDS011;226;48.606;9.096;2023-06-26T00:04:22;8.90;;;5.80;;
479;SDS011;226;48.606;9.096;2023-06-26T00:06:50;9.00;;;5.50;;
479;SDS011;226;48.606;9.096;2023-06-26T00:09:19;11.57;;;6.53;;
479;SDS011;226;48.606;9.096;2023-06-26T00:11:47;11.07;;;6.10;;
479;SDS011;226;48.606;9.096;2023-06-26T00:14:16;10.07;;;6.00;;
479;SDS011;226;48.606;9.096;2023-06-26T00:16:45;15.27;;;6.20;;
479;SDS011;226;48.606;9.096;2023-06-26T00:19:15;12.30;;;6.50;;
479;SDS011;226;48.606;9.096;2023-06-26T00:21:43;9.50;;;6.33;;
479;SDS011;226;48.606;9.096;2023-06-26T00:24:13;10.27;;;5.90;;
479;SDS011;226;48.606;9.096;2023-06-26T00:26:42;9.10;;;5.97;;
479;SDS011;226;48.606;9.096;2023-06-26T00:29:11;14.13;;;6.23;;
479;SDS011;226;48.606;9.096;2023-06-26T00:31:39;9.60;;;6.00;;
479;SDS011;226;48.606;9.096;2023-06-26T00:34:07;12.00;;;5.70;;
479;SDS011;226;48.606;9.096;2023-06-26T00:36:35;11.90;;;6.33;;
479;SDS011;226;48.606;9.096;2023-06-26T00:39:03;13.50;;;7.00;;
479;SDS011;226;48.606;9.096;2023-06-26T00:41:31;18.00;;;7.33;;
479;SDS011;226;48.606;9.096;2023-06-26T00:44:01;13.10;;;6.70;;
479;SDS011;226;48.606;9.096;2023-06-26T00:46:29;14.13;;;6.40;;
479;SDS011;226;48.606;9.096;2023-06-26T00:48:58;11.13;;;6.20;;
479;SDS011;226;48.606;9.096;2023-06-26T00:51:27;12.17;;;5.87;;
479;SDS011;226;48.606;9.096;2023-06-26T00:53:56;11.63;;;6.43;;
479;SDS011;226;48.606;9.096;2023-06-26T00:56:25;9.80;;;5.87;;
479;SDS011;226;48.606;9.096;2023-06-26T00:58:53;10.57;;;6.77;;
479;SDS011;226;48.606;9.096;2023-06-26T01:01:22;12.67;;;6.70;;
479;SDS011;226;48.606;9.096;2023-06-26T01:03:52;13.50;;;7.80;;
479;SDS011;226;48.606;9.096;2023-06-26T01:06:21;12.60;;;6.03;;
479;SDS011;226;48.606;9.096;2023-06-26T01:08:51;10.20;;;6.20;;
479;SDS011;226;48.606;9.096;2023-06-26T01:11:19;13.00;;;6.67;;
479;SDS011;226;48.606;9.096;2023-06-26T01:13:47;11.43;;;6.03;;
479;SDS011;226;48.606;9.096;2023-06-26T01:16:16;13.97;;;7.00;;
479;SDS011;226;48.606;9.096;2023-06-26T01:18:47;12.83;;;6.63;;
479;SDS011;226;48.606;9.096;2023-06-26T01:21:16;13.93;;;6.50;;
479;SDS011;226;48.606;9.096;2023-06-26T01:23:57;12.63;;;7.07;;
479;SDS011;226;48.606;9.096;2023-06-26T01:26:34;18.03;;;7.40;;
479;SDS011;226;48.606;9.096;2023-06-26T01:29:04;14.63;;;6.40;;
479;SDS011;226;48.606;9.096;2023-06-26T01:31:34;16.37;;;7.83;;
479;SDS011;226;48.606;9.096;2023-06-26T01:34:04;12.03;;;7.00;;
479;SDS011;226;48.606;9.096;2023-06-26T01:36:33;12.00;;;6.40;;
479;SDS011;226;48.606;9.096;2023-06-26T01:39:01;15.90;;;7.73;;
479;SDS011;226;48.606;9.096;2023-06-26T01:41:29;20.40;;;7.63;;
479;SDS011;226;48.606;9.096;2023-06-26T01:44:03;12.33;;;6.90;;
479;SDS011;226;48.606;9.096;2023-06-26T01:46:40;13.17;;;7.20;;
479;SDS011;226;48.606;9.096;2023-06-26T01:49:15;13.47;;;6.43;;
479;SDS011;226;48.606;9.096;2023-06-26T01:51:53;15.07;;;7.07;;
479;SDS011;226;48.606;9.096;2023-06-26T01:54:25;13.20;;;6.67;;
479;SDS011;226;48.606;9.096;2023-06-26T01:56:57;13.37;;;7.20;;
479;SDS011;226;48.606;9.096;2023-06-26T01:59:28;8.50;;;5.90;;
479;SDS011;226;48.606;9.096;2023-06-26T02:02:00;12.60;;;6.93;;
479;SDS011;226;48.606;9.096;2023-06-26T02:04:28;11.50;;;7.30;;
479;SDS011;226;48.606;9.096;2023-06-26T02:06:56;12.10;;;6.13;;
479;SDS011;226;48.606;9.096;2023-06-26T02:09:24;12.47;;;6.30;;
479;SDS011;226;48.606;9.096;2023-06-26T02:11:52;15.03;;;6.73;;
479;SDS011;226;48.606;9.096;2023-06-26T02:14:20;10.47;;;7.03;;
479;SDS011;226;48.606;9.096;2023-06-26T02:16:50;16.20;;;7.57;;
479;SDS011;226;48.606;9.096;2023-06-26T02:19:18;11.57;;;6.67;;
479;SDS011;226;48.606;9.096;2023-06-26T02:21:48;15.10;;;7.43;;
479;SDS011;226;48.606;9.096;2023-06-26T02:24:16;14.70;;;7.47;;
479;SDS011;226;48.606;9.096;2023-06-26T02:26:44;14.40;;;8.03;;
479;SDS011;226;48.606;9.096;2023-06-26T02:29:13;12.93;;;5.93;;
479;SDS011;226;48.606;9.096;2023-06-26T02:31:41;12.67;;;6.80;;
479;SDS011;226;48.606;9.096;2023-06-26T02:34:10;13.40;;;6.50;;
479;SDS011;226;48.606;9.096;2023-06-26T02:36:39;13.70;;;7.00;;
479;SDS011;226;48.606;9.096;2023-06-26T02:39:07;12.57;;;6.67;;
479;SDS011;226;48.606;9.096;2023-06-26T02:41:35;12.43;;;7.00;;
479;SDS011;226;48.606;9.096;2023-06-26T02:44:03;12.60;;;7.07;;
479;SDS011;226;48.606;9.096;2023-06-26T02:46:31;17.00;;;7.57;;
479;SDS011;226;48.606;9.096;2023-06-26T02:48:59;10.53;;;6.27;;
479;SDS011;226;48.606;9.096;2023-06-26T02:51:29;12.57;;;6.53;;
479;SDS011;226;48.606;9.096;2023-06-26T02:53:59;11.93;;;6.67;;
479;SDS011;226;48.606;9.096;2023-06-26T02:56:27;11.47;;;7.67;;
479;SDS011;226;48.606;9.096;2023-06-26T02:58:55;11.70;;;6.60;;
479;SDS011;226;48.606;9.096;2023-06-26T03:01:23;14.30;;;6.40;;
479;SDS011;226;48.606;9.096;2023-06-26T03:03:52;11.20;;;6.70;;
479;SDS011;226;48.606;9.096;2023-06-26T03:06:20;12.90;;;5.87;;
479;SDS011;226;48.606;9.096;2023-06-26T03:08:49;14.40;;;8.37;;
479;SDS011;226;48.606;9.096;2023-06-26T03:11:17;10.30;;;6.43;;
479;SDS011;226;48.606;9.096;2023-06-26T03:13:45;9.00;;;6.50;;
479;SDS011;226;48.606;9.096;2023-06-26T03:16:14;12.93;;;7.17;;
479;SDS011;226;48.606;9.096;2023-06-26T03:18:42;14.03;;;6.87;;
479;SDS011;226;48.606;9.096;2023-06-26T03:21:10;16.73;;;7.00;;
479;SDS011;226;48.606;9.096;2023-06-26T03:23:39;10.93;;;6.03;;
479;SDS011;226;48.606;9.096;2023-06-26T03:26:08;10.83;;;6.37;;
479;SDS011;226;48.606;9.096;2023-06-26T03:28:36;12.90;;;6.50;;
479;SDS011;226;48.606;9.096;2023-06-26T03:31:04;17.77;;;6.40;;
479;SDS011;226;48.606;9.096;2023-06-26T03:33:32;13.47;;;5.87;;
479;SDS011;226;48.606;9.096;2023-06-26T03:36:00;10.87;;;6.67;;
479;SDS011;226;48.606;9.096;2023-06-26T03:38:28;14.73;;;7.33;;
479;SDS011;226;48.606;9.096;2023-06-26T03:40:56;12.63;;;6.20;;
479;SDS011;226;48.606;9.096;2023-06-26T03:43:26;13.43;;;6.30;;
479;SDS011;226;48.606;9.096;2023-06-26T03:45:54;13.50;;;7.33;;
479;SDS011;226;48.606;9.096;2023-06-26T03:48:22;12.63;;;7.23;;
479;SDS011;226;48.606;9.096;2023-06-26T03:50:50;13.77;;;6.87;;
479;SDS011;226;48.606;9.096;2023-06-26T03:53:19;15.90;;;6.47;;
479;SDS011;226;48.606;9.096;2023-06-26T03:55:47;11.73;;;6.70;;
479;SDS011;226;48.606;9.096;2023-06-26T03:58:15;9.10;;;5.77;;
479;SDS011;226;48.606;9.096;2023-06-26T04:00:44;11.03;;;6.60;;
479;SDS011;226;48.606;9.096;2023-06-26T04:03:13;13.70;;;6.70;;
479;SDS011;226;48.606;9.096;2023-06-26T04:05:41;8.97;;;5.90;;
479;SDS011;226;48.606;9.096;2023-06-26T04:08:10;9.57;;;6.20;;
479;SDS011;226;48.606;9.096;2023-06-26T04:10:38;12.83;;;7.20;;
479;SDS011;226;48.606;9.096;2023-06-26T04:13:06;12.40;;;6.80;;
479;SDS011;226;48.606;9.096;2023-06-26T04:15:34;9.40;;;6.07;;
479;SDS011;226;48.606;9.096;2023-06-26T04:18:04;10.67;;;6.63;;
479;SDS011;226;48.606;9.096;2023-06-26T04:20:32;12.73;;;7.07;;
479;SDS011;226;48.606;9.096;2023-06-26T04:23:01;14.43;;;6.77;;
479;SDS011;226;48.606;9.096;2023-06-26T04:25:29;12.03;;;5.93;;
479;SDS011;226;48.606;9.096;2023-06-26T04:27:57;11.10;;;6.33;;
479;SDS011;226;48.606;9.096;2023-06-26T04:30:25;11.57;;;6.77;;
479;SDS011;226;48.606;9.096;2023-06-26T04:32:54;10.90;;;6.73;;
479;SDS011;226;48.606;9.096;2023-06-26T04:35:26;11.20;;;6.40;;
479;SDS011;226;48.606;9.096;2023-06-26T04:37:54;13.47;;;7.77;;
479;SDS011;226;48.606;9.096;2023-06-26T04:40:23;9.47;;;5.80;;
479;SDS011;226;48.606;9.096;2023-06-26T04:42:51;19.50;;;7.80;;
479;SDS011;226;48.606;9.096;2023-06-26T04:45:19;14.23;;;7.47;;
479;SDS011;226;48.606;9.096;2023-06-26T04:47:47;11.53;;;5.90;;
479;SDS011;226;48.606;9.096;2023-06-26T04:50:15;11.20;;;6.67;;
479;SDS011;226;48.606;9.096;2023-06-26T04:52:46;12.13;;;6.80;;
479;SDS011;226;48.606;9.096;2023-06-26T04:55:14;12.63;;;7.00;;
479;SDS011;226;48.606;9.096;2023-06-26T04:57:43;10.30;;;6.30;;
479;SDS011;226;48.606;9.096;2023-06-26T05:00:11;7.80;;;5.40;;
479;SDS011;226;48.606;9.096;2023-06-26T05:02:41;13.83;;;5.80;;
479;SDS011;226;48.606;9.096;2023-06-26T05:05:09;7.87;;;5.50;;
479;SDS011;226;48.606;9.096;2023-06-26T05:07:38;11.23;;;6.10;;
479;SDS011;226;48.606;9.096;2023-06-26T05:10:07;9.23;;;6.20;;
479;SDS011;226;48.606;9.096;2023-06-26T05:12:36;9.23;;;5.97;;
479;SDS011;226;48.606;9.096;2023-06-26T05:15:04;11.40;;;7.07;;
479;SDS011;226;48.606;9.096;2023-06-26T05:17:33;9.00;;;5.83;;
479;SDS011;226;48.606;9.096;2023-06-26T05:20:01;10.33;;;5.90;;
479;SDS011;226;48.606;9.096;2023-06-26T05:22:30;9.23;;;5.93;;
479;SDS011;226;48.606;9.096;2023-06-26T05:24:59;9.30;;;6.07;;
479;SDS011;226;48.606;9.096;2023-06-26T05:27:29;11.50;;;5.27;;
479;SDS011;226;48.606;9.096;2023-06-26T05:29:58;10.87;;;6.33;;
479;SDS011;226;48.606;9.096;2023-06-26T05:32:26;9.30;;;5.93;;
479;SDS011;226;48.606;9.096;2023-06-26T05:34:55;12.70;;;6.10;;
479;SDS011;226;48.606;9.096;2023-06-26T05:37:26;9.90;;;5.90;;
479;SDS011;226;48.606;9.096;2023-06-26T05:39:55;11.77;;;6.33;;
479;SDS011;226;48.606;9.096;2023-06-26T05:42:25;10.33;;;5.50;;
479;SDS011;226;48.606;9.096;2023-06-26T05:44:55;11.20;;;5.27;;
479;SDS011;226;48.606;9.096;2023-06-26T05:47:24;9.80;;;6.43;;
479;SDS011;226;48.606;9.096;2023-06-26T05:49:52;12.40;;;5.90;;
479;SDS011;226;48.606;9.096;2023-06-26T05:52:20;8.73;;;5.53;;
479;SDS011;226;48.606;9.096;2023-06-26T05:54:49;7.40;;;5.87;;
479;SDS011;226;48.606;9.096;2023-06-26T05:57:17;9.17;;;5.90;;
479;SDS011;226;48.606;9.096;2023-06-26T05:59:46;10.40;;;5.93;;
479;SDS011;226;48.606;9.096;2023-06-26T06:02:16;9.27;;;5.70;;
479;SDS011;226;48.606;9.096;2023-06-26T06:04:45;7.87;;;5.40;;
479;SDS011;226;48.606;9.096;2023-06-26T06:07:13;7.87;;;5.70;;
479;SDS011;226;48.606;9.096;2023-06-26T06:09:42;12.80;;;6.80;;
479;SDS011;226;48.606;9.096;2023-06-26T06:12:10;12.57;;;6.73;;
479;SDS011;226;48.606;9.096;2023-06-26T06:14:38;9.37;;;5.80;;
479;SDS011;226;48.606;9.096;2023-06-26T06:17:06;6.47;;;4.77;;
479;SDS011;226;48.606;9.096;2023-06-26T06:19:36;8.77;;;5.40;;
479;SDS011;226;48.606;9.096;2023-06-26T06:22:04;7.77;;;6.43;;
479;SDS011;226;48.606;9.096;2023-06-26T06:24:32;11.13;;;6.23;;
479;SDS011;226;48.606;9.096;2023-06-26T06:27:00;7.60;;;5.60;;
479;SDS011;226;48.606;9.096;2023-06-26T06:29:28;7.20;;;5.27;;
479;SDS011;226;48.606;9.096;2023-06-26T06:31:56;8.93;;;6.17;;
479;SDS011;226;48.606;9.096;2023-06-26T06:34:25;12.47;;;6.43;;
479;SDS011;226;48.606;9.096;2023-06-26T06:36:54;13.73;;;6.13;;
479;SDS011;226;48.606;9.096;2023-06-26T06:39:22;6.80;;;5.17;;
479;SDS011;226;48.606;9.096;2023-06-26T06:41:50;7.50;;;5.20;;
479;SDS011;226;48.606;9.096;2023-06-26T06:44:19;10.83;;;6.17;;
479;SDS011;226;48.606;9.096;2023-06-26T06:46:47;7.00;;;5.80;;
479;SDS011;226;48.606;9.096;2023-06-26T06:49:15;8.50;;;5.70;;
479;SDS011;226;48.606;9.096;2023-06-26T06:51:44;7.50;;;4.93;;
479;SDS011;226;48.606;9.096;2023-06-26T06:54:14;9.00;;;5.90;;
479;SDS011;226;48.606;9.096;2023-06-26T06:56:43;8.77;;;5.30;;
479;SDS011;226;48.606;9.096;2023-06-26T06:59:11;11.70;;;5.33;;
479;SDS011;226;48.606;9.096;2023-06-26T07:01:40;12.10;;;5.60;;
479;SDS011;226;48.606;9.096;2023-06-26T07:04:08;9.50;;;5.63;;
479;SDS011;226;48.606;9.096;2023-06-26T07:06:36;9.07;;;5.30;;
479;SDS011;226;48.606;9.096;2023-06-26T07:09:04;8.57;;;6.03;;
479;SDS011;226;48.606;9.096;2023-06-26T07:11:34;8.47;;;5.20;;
479;SDS011;226;48.606;9.096;2023-06-26T07:14:02;7.93;;;5.03;;
479;SDS011;226;48.606;9.096;2023-06-26T07:16:30;8.23;;;4.83;;
479;SDS011;226;48.606;9.096;2023-06-26T07:18:58;8.00;;;4.57;;
479;SDS011;226;48.606;9.096;2023-06-26T07:21:27;6.57;;;5.20;;
479;SDS011;226;48.606;9.096;2023-06-26T07:23:55;8.30;;;5.70;;
479;SDS011;226;48.606;9.096;2023-06-26T07:26:23;8.90;;;5.63;;
479;SDS011;226;48.606;9.096;2023-06-26T07:29:11;9.00;;;5.63;;
479;SDS011;226;48.606;9.096;2023-06-26T07:31:39;7.00;;;4.93;;
479;SDS011;226;48.606;9.096;2023-06-26T07:34:08;7.00;;;4.57;;
479;SDS011;226;48.606;9.096;2023-06-26T07:36:38;7.63;;;5.10;;
479;SDS011;226;48.606;9.096;2023-06-26T07:39:06;8.73;;;5.37;;
479;SDS011;226;48.606;9.096;2023-06-26T07:41:39;8.40;;;5.10;;
479;SDS011;226;48.606;9.096;2023-06-26T07:44:07;10.50;;;5.60;;
479;SDS011;226;48.606;9.096;2023-06-26T07:46:37;7.83;;;5.90;;
479;SDS011;226;48.606;9.096;2023-06-26T07:49:05;8.60;;;4.40;;
479;SDS011;226;48.606;9.096;2023-06-26T07:51:33;9.00;;;5.47;;
479;SDS011;226;48.606;9.096;2023-06-26T07:54:01;7.27;;;4.30;;
479;SDS011;226;48.606;9.096;2023-06-26T07:56:30;8.00;;;4.70;;
479;SDS011;226;48.606;9.096;2023-06-26T07:58:58;6.77;;;4.40;;
479;SDS011;226;48.606;9.096;2023-06-26T08:01:27;8.03;;;5.03;;
479;SDS011;226;48.606;9.096;2023-06-26T08:03:57;5.73;;;4.67;;
479;SDS011;226;48.606;9.096;2023-06-26T08:06:25;7.50;;;5.13;;
479;SDS011;226;48.606;9.096;2023-06-26T08:08:54;8.47;;;5.00;;
479;SDS011;226;48.606;9.096;2023-06-26T08:11:22;6.80;;;4.90;;
479;SDS011;226;48.606;9.096;2023-06-26T08:13:50;10.80;;;4.90;;
479;SDS011;226;48.606;9.096;2023-06-26T08:16:18;7.73;;;4.87;;
479;SDS011;226;48.606;9.096;2023-06-26T08:18:46;7.37;;;5.20;;
479;SDS011;226;48.606;9.096;2023-06-26T08:21:15;7.60;;;5.10;;
479;SDS011;226;48.606;9.096;2023-06-26T08:23:44;6.53;;;4.23;;
479;SDS011;226;48.606;9.096;2023-06-26T08:26:13;9.77;;;4.70;;
479;SDS011;226;48.606;9.096;2023-06-26T08:28:41;8.20;;;5.67;;
479;SDS011;226;48.606;9.096;2023-06-26T08:31:09;12.30;;;5.50;;
479;SDS011;226;48.606;9.096;2023-06-26T08:33:37;6.67;;;4.07;;
479;SDS011;226;48.606;9.096;2023-06-26T08:36:06;8.00;;;4.50;;
479;SDS011;226;48.606;9.096;2023-06-26T08:38:35;8.73;;;4.50;;
479;SDS011;226;48.606;9.096;2023-06-26T08:41:06;7.97;;;5.37;;
479;SDS011;226;48.606;9.096;2023-06-26T08:43:35;10.90;;;4.90;;
479;SDS011;226;48.606;9.096;2023-06-26T08:46:04;6.27;;;4.10;;
479;SDS011;226;48.606;9.096;2023-06-26T08:48:35;10.10;;;4.90;;
479;SDS011;226;48.606;9.096;2023-06-26T08:51:05;6.43;;;4.53;;
479;SDS011;226;48.606;9.096;2023-06-26T08:53:43;8.37;;;4.73;;
479;SDS011;226;48.606;9.096;2023-06-26T08:56:17;6.27;;;5.10;;
479;SDS011;226;48.606;9.096;2023-06-26T08:58:47;6.00;;;4.93;;
479;SDS011;226;48.606;9.096;2023-06-26T09:01:16;7.90;;;5.00;;
479;SDS011;226;48.606;9.096;2023-06-26T09:03:45;5.90;;;4.27;;
479;SDS011;226;48.606;9.096;2023-06-26T09:06:13;12.63;;;5.60;;
479;SDS011;226;48.606;9.096;2023-06-26T09:08:43;9.40;;;5.20;;
479;SDS011;226;48.606;9.096;2023-06-26T09:11:11;5.57;;;4.20;;
479;SDS011;226;48.606;9.096;2023-06-26T09:13:39;6.67;;;4.70;;
479;SDS011;226;48.606;9.096;2023-06-26T09:16:08;5.73;;;4.67;;
479;SDS011;226;48.606;9.096;2023-06-26T09:18:37;6.67;;;4.33;;
479;SDS011;226;48.606;9.096;2023-06-26T09:21:08;5.83;;;4.40;;
479;SDS011;226;48.606;9.096;2023-06-26T09:23:37;7.93;;;5.10;;
479;SDS011;226;48.606;9.096;2023-06-26T09:26:09;4.77;;;3.77;;
479;SDS011;226;48.606;9.096;2023-06-26T09:28:38;10.03;;;4.77;;
479;SDS011;226;48.606;9.096;2023-06-26T09:31:09;6.73;;;4.50;;
479;SDS011;226;48.606;9.096;2023-06-26T09:33:38;4.40;;;4.00;;
479;SDS011;226;48.606;9.096;2023-06-26T09:36:08;6.60;;;4.27;;
479;SDS011;226;48.606;9.096;2023-06-26T09:38:46;6.30;;;4.70;;
479;SDS011;226;48.606;9.096;2023-06-26T09:41:16;7.87;;;4.57;;
479;SDS011;226;48.606;9.096;2023-06-26T09:43:45;5.47;;;3.83;;
479;SDS011;226;48.606;9.096;2023-06-26T09:46:15;6.67;;;4.63;;
479;SDS011;226;48.606;9.096;2023-06-26T09:48:44;11.53;;;5.33;;
479;SDS011;226;48.606;9.096;2023-06-26T09:51:12;8.10;;;4.30;;
479;SDS011;226;48.606;9.096;2023-06-26T09:53:42;6.60;;;3.97;;
479;SDS011;226;48.606;9.096;2023-06-26T09:56:14;8.57;;;4.60;;
479;SDS011;226;48.606;9.096;2023-06-26T09:58:44;6.87;;;4.37;;
479;SDS011;226;48.606;9.096;2023-06-26T10:01:13;6.17;;;4.30;;
479;SDS011;226;48.606;9.096;2023-06-26T10:03:42;7.60;;;5.20;;
479;SDS011;226;48.606;9.096;2023-06-26T10:06:11;7.57;;;5.03;;
479;SDS011;226;48.606;9.096;2023-06-26T10:08:40;6.53;;;4.30;;
479;SDS011;226;48.606;9.096;2023-06-26T10:11:11;7.60;;;4.50;;
479;SDS011;226;48.606;9.096;2023-06-26T10:13:45;8.80;;;4.83;;
479;SDS011;226;48.606;9.096;2023-06-26T10:16:26;4.67;;;4.00;;
479;SDS011;226;48.606;9.096;2023-06-26T10:18:56;7.20;;;4.77;;
479;SDS011;226;48.606;9.096;2023-06-26T10:21:28;7.57;;;4.77;;
479;SDS011;226;48.606;9.096;2023-06-26T10:23:58;5.77;;;4.40;;
479;SDS011;226;48.606;9.096;2023-06-26T10:26:26;7.07;;;4.40;;
479;SDS011;226;48.606;9.096;2023-06-26T10:28:58;7.10;;;5.53;;
479;SDS011;226;48.606;9.096;2023-06-26T10:31:27;5.20;;;4.00;;
479;SDS011;226;48.606;9.096;2023-06-26T10:33:57;6.93;;;4.30;;
479;SDS011;226;48.606;9.096;2023-06-26T10:36:29;6.53;;;4.77;;
479;SDS011;226;48.606;9.096;2023-06-26T10:38:59;4.87;;;4.17;;
479;SDS011;226;48.606;9.096;2023-06-26T10:41:36;6.60;;;4.60;;
479;SDS011;226;48.606;9.096;2023-06-26T10:44:16;7.43;;;4.70;;
479;SDS011;226;48.606;9.096;2023-06-26T10:46:50;6.07;;;4.10;;
479;SDS011;226;48.606;9.096;2023-06-26T10:49:20;9.37;;;4.73;;
479;SDS011;226;48.606;9.096;2023-06-26T10:51:51;9.93;;;5.37;;
479;SDS011;226;48.606;9.096;2023-06-26T10:54:22;7.70;;;5.20;;
479;SDS011;226;48.606;9.096;2023-06-26T10:56:50;5.80;;;5.17;;
479;SDS011;226;48.606;9.096;2023-06-26T10:59:25;6.83;;;5.70;;
479;SDS011;226;48.606;9.096;2023-06-26T11:01:54;7.10;;;4.93;;
479;SDS011;226;48.606;9.096;2023-06-26T11:04:37;8.87;;;6.10;;
479;SDS011;226;48.606;9.096;2023-06-26T11:07:17;7.50;;;5.47;;
479;SDS011;226;48.606;9.096;2023-06-26T11:09:54;7.67;;;5.37;;
479;SDS011;226;48.606;9.096;2023-06-26T11:12:36;8.53;;;5.90;;
479;SDS011;226;48.606;9.096;2023-06-26T11:15:10;9.70;;;5.77;;
479;SDS011;226;48.606;9.096;2023-06-26T11:17:39;10.07;;;6.87;;
479;SDS011;226;48.606;9.096;2023-06-26T11:20:09;7.80;;;5.17;;
479;SDS011;226;48.606;9.096;2023-06-26T11:22:39;8.00;;;5.60;;
479;SDS011;226;48.606;9.096;2023-06-26T11:25:08;13.73;;;5.93;;
479;SDS011;226;48.606;9.096;2023-06-26T11:27:37;8.27;;;5.20;;
479;SDS011;226;48.606;9.096;2023-06-26T11:30:07;8.30;;;5.23;;
479;SDS011;226;48.606;9.096;2023-06-26T11:32:38;7.23;;;5.23;;
479;SDS011;226;48.606;9.096;2023-06-26T11:35:07;8.73;;;5.63;;
479;SDS011;226;48.606;9.096;2023-06-26T11:37:36;8.93;;;5.20;;
479;SDS011;226;48.606;9.096;2023-06-26T11:40:16;6.07;;;4.70;;
479;SDS011;226;48.606;9.096;2023-06-26T11:42:45;8.13;;;5.10;;
479;SDS011;226;48.606;9.096;2023-06-26T11:45:13;6.40;;;5.13;;
479;SDS011;226;48.606;9.096;2023-06-26T11:47:45;7.77;;;5.53;;
479;SDS011;226;48.606;9.096;2023-06-26T11:50:16;9.20;;;5.60;;
479;SDS011;226;48.606;9.096;2023-06-26T11:52:45;7.97;;;5.67;;
479;SDS011;226;48.606;9.096;2023-06-26T11:55:19;6.63;;;4.90;;
479;SDS011;226;48.606;9.096;2023-06-26T11:57:48;12.67;;;6.00;;
479;SDS011;226;48.606;9.096;2023-06-26T12:00:17;10.10;;;6.33;;
479;SDS011;226;48.606;9.096;2023-06-26T12:02:46;7.23;;;5.23;;
479;SDS011;226;48.606;9.096;2023-06-26T12:05:16;8.67;;;5.80;;
479;SDS011;226;48.606;9.096;2023-06-26T12:07:46;7.10;;;5.80;;
479;SDS011;226;48.606;9.096;2023-06-26T12:10:16;10.73;;;5.23;;
479;SDS011;226;48.606;9.096;2023-06-26T12:12:46;9.40;;;5.63;;
479;SDS011;226;48.606;9.096;2023-06-26T12:15:15;7.43;;;4.97;;
479;SDS011;226;48.606;9.096;2023-06-26T12:17:43;9.00;;;5.40;;
479;SDS011;226;48.606;9.096;2023-06-26T12:20:19;7.30;;;4.80;;
479;SDS011;226;48.606;9.096;2023-06-26T12:22:48;8.80;;;5.50;;
479;SDS011;226;48.606;9.096;2023-06-26T12:25:21;7.17;;;5.23;;
479;SDS011;226;48.606;9.096;2023-06-26T12:27:50;7.23;;;5.10;;
479;SDS011;226;48.606;9.096;2023-06-26T12:30:18;7.70;;;4.70;;
479;SDS011;226;48.606;9.096;2023-06-26T12:32:46;6.70;;;5.60;;
479;SDS011;226;48.606;9.096;2023-06-26T12:35:15;7.13;;;5.57;;
479;SDS011;226;48.606;9.096;2023-06-26T12:37:44;7.33;;;5.10;;
479;SDS011;226;48.606;9.096;2023-06-26T12:40:16;7.87;;;5.20;;
479;SDS011;226;48.606;9.096;2023-06-26T12:42:45;7.27;;;5.80;;
479;SDS011;226;48.606;9.096;2023-06-26T12:45:13;9.23;;;5.90;;
479;SDS011;226;48.606;9.096;2023-06-26T12:48:06;9.67;;;5.47;;
479;SDS011;226;48.606;9.096;2023-06-26T12:50:37;7.57;;;5.10;;
479;SDS011;226;48.606;9.096;2023-06-26T12:53:07;7.00;;;5.10;;
479;SDS011;226;48.606;9.096;2023-06-26T12:55:36;12.70;;;6.10;;
479;SDS011;226;48.606;9.096;2023-06-26T12:58:04;40.97;;;6.10;;
479;SDS011;226;48.606;9.096;2023-06-26T13:00:34;8.20;;;5.40;;
479;SDS011;226;48.606;9.096;2023-06-26T13:03:04;7.60;;;5.70;;
479;SDS011;226;48.606;9.096;2023-06-26T13:05:36;5.57;;;4.67;;
479;SDS011;226;48.606;9.096;2023-06-26T13:08:04;8.33;;;5.37;;
479;SDS011;226;48.606;9.096;2023-06-26T13:10:33;9.07;;;5.80;;
479;SDS011;226;48.606;9.096;2023-06-26T13:13:02;6.60;;;5.07;;
479;SDS011;226;48.606;9.096;2023-06-26T13:15:30;7.10;;;5.20;;
479;SDS011;226;48.606;9.096;2023-06-26T13:17:58;5.43;;;4.27;;
479;SDS011;226;48.606;9.096;2023-06-26T13:20:27;8.10;;;4.80;;
479;SDS011;226;48.606;9.096;2023-06-26T13:22:55;16.97;;;6.37;;
479;SDS011;226;48.606;9.096;2023-06-26T13:25:23;8.77;;;5.53;;
479;SDS011;226;48.606;9.096;2023-06-26T13:27:53;7.50;;;5.20;;
479;SDS011;226;48.606;9.096;2023-06-26T13:30:21;7.60;;;4.80;;
479;SDS011;226;48.606;9.096;2023-06-26T13:32:50;7.83;;;4.90;;
479;SDS011;226;48.606;9.096;2023-06-26T13:35:18;7.83;;;4.47;;
479;SDS011;226;48.606;9.096;2023-06-26T13:37:47;8.00;;;5.30;;
479;SDS011;226;48.606;9.096;2023-06-26T13:40:15;10.10;;;4.90;;
479;SDS011;226;48.606;9.096;2023-06-26T13:42:43;9.07;;;4.30;;
479;SDS011;226;48.606;9.096;2023-06-26T13:45:13;5.33;;;4.23;;
479;SDS011;226;48.606;9.096;2023-06-26T13:47:56;11.17;;;5.07;;
479;SDS011;226;48.606;9.096;2023-06-26T13:50:25;6.03;;;4.50;;
479;SDS011;226;48.606;9.096;2023-06-26T13:53:10;6.00;;;4.30;;
479;SDS011;226;48.606;9.096;2023-06-26T13:55:38;5.67;;;3.97;;
479;SDS011;226;48.606;9.096;2023-06-26T13:58:07;9.33;;;5.50;;
479;SDS011;226;48.606;9.096;2023-06-26T14:00:37;6.07;;;4.40;;
479;SDS011;226;48.606;9.096;2023-06-26T14:03:06;4.77;;;4.30;;
479;SDS011;226;48.606;9.096;2023-06-26T14:05:36;4.10;;;3.70;;
479;SDS011;226;48.606;9.096;2023-06-26T14:08:09;6.07;;;4.23;;
479;SDS011;226;48.606;9.096;2023-06-26T14:10:38;5.40;;;4.27;;
479;SDS011;226;48.606;9.096;2023-06-26T14:13:06;5.40;;;4.07;;
479;SDS011;226;48.606;9.096;2023-06-26T14:15:39;6.60;;;4.77;;
479;SDS011;226;48.606;9.096;2023-06-26T14:18:07;5.80;;;4.03;;
479;SDS011;226;48.606;9.096;2023-06-26T14:20:35;5.60;;;4.53;;
479;SDS011;226;48.606;9.096;2023-06-26T14:23:04;6.70;;;4.50;;
479;SDS011;226;48.606;9.096;2023-06-26T14:25:32;6.90;;;4.50;;
479;SDS011;226;48.606;9.096;2023-06-26T14:28:00;6.40;;;4.10;;
479;SDS011;226;48.606;9.096;2023-06-26T14:30:28;6.57;;;4.00;;
479;SDS011;226;48.606;9.096;2023-06-26T14:32:57;5.47;;;3.40;;
479;SDS011;226;48.606;9.096;2023-06-26T14:35:26;6.60;;;4.40;;
479;SDS011;226;48.606;9.096;2023-06-26T14:37:54;5.17;;;4.13;;
479;SDS011;226;48.606;9.096;2023-06-26T14:40:22;4.60;;;3.87;;
479;SDS011;226;48.606;9.096;2023-06-26T14:42:51;9.67;;;4.50;;
479;SDS011;226;48.606;9.096;2023-06-26T14:45:20;4.87;;;4.00;;
479;SDS011;226;48.606;9.096;2023-06-26T14:47:48;3.90;;;3.33;;
479;SDS011;226;48.606;9.096;2023-06-26T14:50:18;5.53;;;3.53;;
479;SDS011;226;48.606;9.096;2023-06-26T14:52:46;5.70;;;3.90;;
479;SDS011;226;48.606;9.096;2023-06-26T14:55:14;5.63;;;3.13;;
479;SDS011;226;48.606;9.096;2023-06-26T14:57:42;3.97;;;2.80;;
479;SDS011;226;48.606;9.096;2023-06-26T15:00:11;4.60;;;3.00;;
479;SDS011;226;48.606;9.096;2023-06-26T15:02:40;3.73;;;3.10;;
479;SDS011;226;48.606;9.096;2023-06-26T15:05:09;4.50;;;3.27;;
479;SDS011;226;48.606;9.096;2023-06-26T15:07:38;4.10;;;2.80;;
479;SDS011;226;48.606;9.096;2023-06-26T15:10:07;3.27;;;2.80;;
479;SDS011;226;48.606;9.096;2023-06-26T15:12:36;6.10;;;2.50;;
479;SDS011;226;48.606;9.096;2023-06-26T15:15:04;3.30;;;2.53;;
479;SDS011;226;48.606;9.096;2023-06-26T15:17:34;3.33;;;3.03;;
479;SDS011;226;48.606;9.096;2023-06-26T15:20:02;4.37;;;2.90;;
479;SDS011;226;48.606;9.096;2023-06-26T15:22:30;4.63;;;2.30;;
479;SDS011;226;48.606;9.096;2023-06-26T15:25:00;3.57;;;2.60;;
479;SDS011;226;48.606;9.096;2023-06-26T15:27:28;3.27;;;2.70;;
479;SDS011;226;48.606;9.096;2023-06-26T15:29:57;4.33;;;3.10;;
479;SDS011;226;48.606;9.096;2023-06-26T15:32:25;7.20;;;2.77;;
479;SDS011;226;48.606;9.096;2023-06-26T15:34:53;3.80;;;3.10;;
479;SDS011;226;48.606;9.096;2023-06-26T15:37:21;3.50;;;3.20;;
479;SDS011;226;48.606;9.096;2023-06-26T15:39:50;3.50;;;2.67;;
479;SDS011;226;48.606;9.096;2023-06-26T15:42:19;3.87;;;3.00;;
479;SDS011;226;48.606;9.096;2023-06-26T15:44:47;5.63;;;3.20;;
479;SDS011;226;48.606;9.096;2023-06-26T15:47:15;4.43;;;2.70;;
479;SDS011;226;48.606;9.096;2023-06-26T15:49:43;7.00;;;3.07;;
479;SDS011;226;48.606;9.096;2023-06-26T15:52:11;5.00;;;2.70;;
479;SDS011;226;48.606;9.096;2023-06-26T15:54:40;2.63;;;2.43;;